sensor_id;sensor_type;location;lat;lon;timestamp;P1;durP1;ratioP1;P2;durP2;ratioP2
23636;SDS011;11995;50.842;4.456;2022-09-02T12:00:32;5.35;;;1.82;;
23636;SDS011;11995;50.842;4.456;2022-09-02T12:11:01;2.52;;;1.95;;
23636;SDS011;11995;50.842;4.456;2022-09-02T12:13:40;5.17;;;2.45;;
23636;SDS011;11995;50.842;4.456;2022-09-02T12:21:25;4.90;;;2.20;;
23636;SDS011;11995;50.842;4.456;2022-09-02T12:29:10;3.08;;;1.65;;
23636;SDS011;11995;50.842;4.456;2022-09-02T12:31:41;4.67;;;1.92;;
23636;SDS011;11995;50.842;4.456;2022-09-02T12:36:56;4.92;;;1.92;;
23636;SDS011;11995;50.842;4.456;2022-09-02T12:42:00;2.45;;;1.92;;
23636;SDS011;11995;50.842;4.456;2022-09-02T12:47:37;2.62;;;2.22;;
23636;SDS011;11995;50.842;4.456;2022-09-02T12:50:05;2.10;;;2.00;;
23636;SDS011;11995;50.842;4.456;2022-09-02T12:52:43;1.95;;;1.85;;
23636;SDS011;11995;50.842;4.456;2022-09-02T12:57:46;4.35;;;2.62;;
23636;SDS011;11995;50.842;4.456;2022-09-02T13:00:25;2.67;;;1.85;;
23636;SDS011;11995;50.842;4.456;2022-09-02T13:05:59;2.15;;;1.82;;
23636;SDS011;11995;50.842;4.456;2022-09-02T13:20:08;2.45;;;2.05;;
23636;SDS011;11995;50.842;4.456;2022-09-02T13:22:53;4.40;;;2.35;;
23636;SDS011;11995;50.842;4.456;2022-09-02T13:25:42;2.58;;;1.75;;
23636;SDS011;11995;50.842;4.456;2022-09-02T13:31:31;3.80;;;2.12;;
23636;SDS011;11995;50.842;4.456;2022-09-02T13:34:00;4.33;;;1.97;;
23636;SDS011;11995;50.842;4.456;2022-09-02T13:36:36;4.40;;;1.62;;
23636;SDS011;11995;50.842;4.456;2022-09-02T13:39:18;4.80;;;2.00;;
23636;SDS011;11995;50.842;4.456;2022-09-02T13:41:48;4.55;;;1.95;;
23636;SDS011;11995;50.842;4.456;2022-09-02T13:44:25;2.12;;;1.85;;
23636;SDS011;11995;50.842;4.456;2022-09-02T13:47:11;2.70;;;1.80;;
23636;SDS011;11995;50.842;4.456;2022-09-02T13:49:35;4.87;;;2.13;;
23636;SDS011;11995;50.842;4.456;2022-09-02T13:52:05;7.97;;;2.98;;
23636;SDS011;11995;50.842;4.456;2022-09-02T13:54:35;4.17;;;1.92;;
23636;SDS011;11995;50.842;4.456;2022-09-02T13:57:09;12.88;;;2.75;;
23636;SDS011;11995;50.842;4.456;2022-09-02T13:59:45;4.20;;;1.65;;
23636;SDS011;11995;50.842;4.456;2022-09-02T14:02:26;2.08;;;1.90;;
23636;SDS011;11995;50.842;4.456;2022-09-02T14:04:56;3.00;;;1.90;;
23636;SDS011;11995;50.842;4.456;2022-09-02T14:07:41;2.50;;;1.92;;
23636;SDS011;11995;50.842;4.456;2022-09-02T14:10:08;3.92;;;1.77;;
23636;SDS011;11995;50.842;4.456;2022-09-02T14:12:39;4.12;;;1.67;;
23636;SDS011;11995;50.842;4.456;2022-09-02T14:15:08;2.45;;;1.90;;
23636;SDS011;11995;50.842;4.456;2022-09-02T14:17:38;3.10;;;1.67;;
23636;SDS011;11995;50.842;4.456;2022-09-02T14:22:42;4.25;;;1.80;;
23636;SDS011;11995;50.842;4.456;2022-09-02T14:25:15;2.85;;;1.82;;
23636;SDS011;11995;50.842;4.456;2022-09-02T14:27:53;2.58;;;1.65;;
23636;SDS011;11995;50.842;4.456;2022-09-02T14:30:30;2.65;;;1.98;;
23636;SDS011;11995;50.842;4.456;2022-09-02T14:36:30;2.60;;;1.82;;
23636;SDS011;11995;50.842;4.456;2022-09-02T14:43:48;2.92;;;1.80;;
23636;SDS011;11995;50.842;4.456;2022-09-02T14:49:19;2.52;;;1.60;;
23636;SDS011;11995;50.842;4.456;2022-09-02T14:51:55;3.30;;;2.15;;
23636;SDS011;11995;50.842;4.456;2022-09-02T14:54:38;3.75;;;1.98;;
23636;SDS011;11995;50.842;4.456;2022-09-02T14:59:52;4.35;;;1.42;;
23636;SDS011;11995;50.842;4.456;2022-09-02T15:02:30;5.15;;;1.47;;
23636;SDS011;11995;50.842;4.456;2022-09-02T15:04:54;2.67;;;1.47;;
23636;SDS011;11995;50.842;4.456;2022-09-02T15:07:23;4.03;;;1.90;;
23636;SDS011;11995;50.842;4.456;2022-09-02T15:09:52;3.02;;;1.52;;
23636;SDS011;11995;50.842;4.456;2022-09-02T15:12:29;7.03;;;3.00;;
23636;SDS011;11995;50.842;4.456;2022-09-02T15:15:02;2.92;;;2.02;;
23636;SDS011;11995;50.842;4.456;2022-09-02T15:17:29;1.85;;;1.52;;
23636;SDS011;11995;50.842;4.456;2022-09-02T15:19:57;4.62;;;2.10;;
23636;SDS011;11995;50.842;4.456;2022-09-02T15:22:24;5.47;;;1.75;;
23636;SDS011;11995;50.842;4.456;2022-09-02T15:24:52;5.72;;;1.52;;
23636;SDS011;11995;50.842;4.456;2022-09-02T15:27:19;3.58;;;1.57;;
23636;SDS011;11995;50.842;4.456;2022-09-02T15:29:47;3.12;;;1.52;;
23636;SDS011;11995;50.842;4.456;2022-09-02T15:32:15;3.33;;;1.77;;
23636;SDS011;11995;50.842;4.456;2022-09-02T15:34:42;3.77;;;1.32;;
23636;SDS011;11995;50.842;4.456;2022-09-02T15:37:12;2.50;;;2.20;;
23636;SDS011;11995;50.842;4.456;2022-09-02T15:39:39;4.25;;;1.57;;
23636;SDS011;11995;50.842;4.456;2022-09-02T15:42:07;3.65;;;1.37;;
23636;SDS011;11995;50.842;4.456;2022-09-02T15:44:34;2.85;;;1.57;;
23636;SDS011;11995;50.842;4.456;2022-09-02T15:47:02;5.60;;;2.02;;
23636;SDS011;11995;50.842;4.456;2022-09-02T15:49:29;2.27;;;1.62;;
23636;SDS011;11995;50.842;4.456;2022-09-02T15:51:57;2.85;;;1.80;;
23636;SDS011;11995;50.842;4.456;2022-09-02T15:54:25;3.37;;;1.72;;
23636;SDS011;11995;50.842;4.456;2022-09-02T15:56:54;2.25;;;1.42;;
23636;SDS011;11995;50.842;4.456;2022-09-02T15:59:25;1.30;;;1.20;;
23636;SDS011;11995;50.842;4.456;2022-09-02T16:01:56;5.85;;;2.52;;
23636;SDS011;11995;50.842;4.456;2022-09-02T16:04:26;2.33;;;1.72;;
23636;SDS011;11995;50.842;4.456;2022-09-02T16:06:54;2.57;;;2.13;;
23636;SDS011;11995;50.842;4.456;2022-09-02T16:09:22;2.40;;;1.40;;
23636;SDS011;11995;50.842;4.456;2022-09-02T16:11:52;4.20;;;1.72;;
23636;SDS011;11995;50.842;4.456;2022-09-02T16:14:23;3.83;;;1.55;;
23636;SDS011;11995;50.842;4.456;2022-09-02T16:16:51;1.60;;;1.50;;
23636;SDS011;11995;50.842;4.456;2022-09-02T16:21:47;1.65;;;1.47;;
23636;SDS011;11995;50.842;4.456;2022-09-02T16:24:16;2.33;;;1.57;;
23636;SDS011;11995;50.842;4.456;2022-09-02T16:26:46;2.55;;;1.65;;
23636;SDS011;11995;50.842;4.456;2022-09-02T16:31:45;4.17;;;1.95;;
23636;SDS011;11995;50.842;4.456;2022-09-02T16:34:14;2.05;;;1.62;;
23636;SDS011;11995;50.842;4.456;2022-09-02T16:36:46;6.78;;;1.80;;
23636;SDS011;11995;50.842;4.456;2022-09-02T16:39:17;6.10;;;2.00;;
23636;SDS011;11995;50.842;4.456;2022-09-02T16:44:19;3.47;;;2.10;;
23636;SDS011;11995;50.842;4.456;2022-09-02T16:46:44;5.97;;;2.35;;
23636;SDS011;11995;50.842;4.456;2022-09-02T16:49:14;3.15;;;1.52;;
23636;SDS011;11995;50.842;4.456;2022-09-02T16:51:44;2.85;;;1.60;;
23636;SDS011;11995;50.842;4.456;2022-09-02T16:54:13;4.40;;;1.92;;
23636;SDS011;11995;50.842;4.456;2022-09-02T16:56:41;2.98;;;1.60;;
23636;SDS011;11995;50.842;4.456;2022-09-02T16:59:10;7.83;;;2.23;;
23636;SDS011;11995;50.842;4.456;2022-09-02T17:01:38;6.65;;;2.40;;
23636;SDS011;11995;50.842;4.456;2022-09-02T17:04:06;9.00;;;2.27;;
23636;SDS011;11995;50.842;4.456;2022-09-02T17:06:34;3.80;;;2.70;;
23636;SDS011;11995;50.842;4.456;2022-09-02T17:09:03;10.85;;;2.30;;
23636;SDS011;11995;50.842;4.456;2022-09-02T17:14:02;7.53;;;2.10;;
23636;SDS011;11995;50.842;4.456;2022-09-02T17:16:33;2.92;;;1.90;;
23636;SDS011;11995;50.842;4.456;2022-09-02T17:19:03;2.65;;;2.10;;
23636;SDS011;11995;50.842;4.456;2022-09-02T17:24:04;2.83;;;1.72;;
23636;SDS011;11995;50.842;4.456;2022-09-02T17:26:35;4.10;;;2.55;;
23636;SDS011;11995;50.842;4.456;2022-09-02T17:29:09;5.30;;;2.40;;
23636;SDS011;11995;50.842;4.456;2022-09-02T17:31:39;5.70;;;2.37;;
23636;SDS011;11995;50.842;4.456;2022-09-02T17:34:07;9.15;;;3.80;;
23636;SDS011;11995;50.842;4.456;2022-09-02T17:36:36;6.70;;;3.02;;
23636;SDS011;11995;50.842;4.456;2022-09-02T17:39:06;8.03;;;3.30;;
23636;SDS011;11995;50.842;4.456;2022-09-02T17:41:42;3.87;;;1.62;;
23636;SDS011;11995;50.842;4.456;2022-09-02T17:44:23;7.28;;;1.90;;
23636;SDS011;11995;50.842;4.456;2022-09-02T17:47:00;3.25;;;2.40;;
23636;SDS011;11995;50.842;4.456;2022-09-02T17:49:31;3.47;;;2.27;;
23636;SDS011;11995;50.842;4.456;2022-09-02T17:52:02;2.47;;;1.80;;
23636;SDS011;11995;50.842;4.456;2022-09-02T17:54:32;4.55;;;2.10;;
23636;SDS011;11995;50.842;4.456;2022-09-02T17:57:07;3.67;;;1.98;;
23636;SDS011;11995;50.842;4.456;2022-09-02T18:00:01;5.03;;;1.90;;
23636;SDS011;11995;50.842;4.456;2022-09-02T18:02:32;1.95;;;1.55;;
23636;SDS011;11995;50.842;4.456;2022-09-02T18:05:17;8.10;;;2.33;;
23636;SDS011;11995;50.842;4.456;2022-09-02T18:08:05;6.90;;;4.60;;
23636;SDS011;11995;50.842;4.456;2022-09-02T18:10:38;14.80;;;7.35;;
23636;SDS011;11995;50.842;4.456;2022-09-02T18:13:11;9.68;;;4.80;;
23636;SDS011;11995;50.842;4.456;2022-09-02T18:18:29;6.58;;;2.98;;
23636;SDS011;11995;50.842;4.456;2022-09-02T18:21:00;4.75;;;2.55;;
23636;SDS011;11995;50.842;4.456;2022-09-02T18:31:54;5.50;;;2.80;;
23636;SDS011;11995;50.842;4.456;2022-09-02T18:37:38;3.75;;;2.00;;
23636;SDS011;11995;50.842;4.456;2022-09-02T18:40:11;5.20;;;2.35;;
23636;SDS011;11995;50.842;4.456;2022-09-02T18:45:48;4.20;;;2.42;;
23636;SDS011;11995;50.842;4.456;2022-09-02T18:48:31;8.15;;;2.83;;
23636;SDS011;11995;50.842;4.456;2022-09-02T18:51:03;4.72;;;2.47;;
23636;SDS011;11995;50.842;4.456;2022-09-02T18:53:44;4.87;;;2.62;;
23636;SDS011;11995;50.842;4.456;2022-09-02T18:56:12;6.65;;;2.55;;
23636;SDS011;11995;50.842;4.456;2022-09-02T18:58:46;6.12;;;1.98;;
23636;SDS011;11995;50.842;4.456;2022-09-02T19:01:25;5.42;;;2.20;;
23636;SDS011;11995;50.842;4.456;2022-09-02T19:03:59;4.90;;;2.37;;
23636;SDS011;11995;50.842;4.456;2022-09-02T19:06:28;9.88;;;4.72;;
23636;SDS011;11995;50.842;4.456;2022-09-02T19:09:05;9.95;;;8.08;;
23636;SDS011;11995;50.842;4.456;2022-09-02T19:11:35;10.53;;;5.55;;
23636;SDS011;11995;50.842;4.456;2022-09-02T19:16:56;7.72;;;4.90;;
23636;SDS011;11995;50.842;4.456;2022-09-02T19:19:24;6.60;;;4.23;;
23636;SDS011;11995;50.842;4.456;2022-09-02T19:21:55;7.95;;;3.92;;
23636;SDS011;11995;50.842;4.456;2022-09-02T19:24:41;6.95;;;3.20;;
23636;SDS011;11995;50.842;4.456;2022-09-02T19:27:11;9.03;;;3.00;;
23636;SDS011;11995;50.842;4.456;2022-09-02T19:29:41;8.23;;;2.90;;
23636;SDS011;11995;50.842;4.456;2022-09-02T19:32:12;8.08;;;3.17;;
23636;SDS011;11995;50.842;4.456;2022-09-02T19:34:41;12.90;;;4.03;;
23636;SDS011;11995;50.842;4.456;2022-09-02T19:37:10;6.30;;;2.47;;
23636;SDS011;11995;50.842;4.456;2022-09-02T19:39:40;7.50;;;2.83;;
23636;SDS011;11995;50.842;4.456;2022-09-02T19:42:07;10.53;;;3.20;;
23636;SDS011;11995;50.842;4.456;2022-09-02T19:44:35;8.60;;;2.80;;
23636;SDS011;11995;50.842;4.456;2022-09-02T19:47:04;12.15;;;3.30;;
23636;SDS011;11995;50.842;4.456;2022-09-02T19:49:34;3.42;;;2.15;;
23636;SDS011;11995;50.842;4.456;2022-09-02T19:52:01;6.12;;;2.80;;
23636;SDS011;11995;50.842;4.456;2022-09-02T19:54:29;7.33;;;2.37;;
23636;SDS011;11995;50.842;4.456;2022-09-02T19:56:56;7.50;;;2.27;;
23636;SDS011;11995;50.842;4.456;2022-09-02T19:59:24;4.70;;;2.10;;
23636;SDS011;11995;50.842;4.456;2022-09-02T20:01:51;6.33;;;2.10;;
23636;SDS011;11995;50.842;4.456;2022-09-02T20:04:19;2.95;;;2.12;;
23636;SDS011;11995;50.842;4.456;2022-09-02T20:06:47;8.83;;;2.75;;
23636;SDS011;11995;50.842;4.456;2022-09-02T20:09:15;6.50;;;2.45;;
23636;SDS011;11995;50.842;4.456;2022-09-02T20:11:43;8.85;;;2.85;;
23636;SDS011;11995;50.842;4.456;2022-09-02T20:14:11;4.22;;;2.60;;
23636;SDS011;11995;50.842;4.456;2022-09-02T20:16:38;5.20;;;2.47;;
23636;SDS011;11995;50.842;4.456;2022-09-02T20:19:06;12.73;;;3.60;;
23636;SDS011;11995;50.842;4.456;2022-09-02T20:21:40;5.15;;;1.72;;
23636;SDS011;11995;50.842;4.456;2022-09-02T20:24:10;8.38;;;2.55;;
23636;SDS011;11995;50.842;4.456;2022-09-02T20:35:10;10.75;;;2.40;;
23636;SDS011;11995;50.842;4.456;2022-09-02T20:40:52;3.87;;;2.58;;
23636;SDS011;11995;50.842;4.456;2022-09-02T20:49:09;6.53;;;2.58;;
23636;SDS011;11995;50.842;4.456;2022-09-02T20:54:55;4.37;;;2.70;;
23636;SDS011;11995;50.842;4.456;2022-09-02T20:57:37;6.97;;;3.15;;
23636;SDS011;11995;50.842;4.456;2022-09-02T21:00:09;11.08;;;3.12;;
23636;SDS011;11995;50.842;4.456;2022-09-02T21:02:58;9.35;;;2.80;;
23636;SDS011;11995;50.842;4.456;2022-09-02T21:05:33;3.70;;;2.80;;
23636;SDS011;11995;50.842;4.456;2022-09-02T21:08:10;11.03;;;3.22;;
23636;SDS011;11995;50.842;4.456;2022-09-02T21:10:40;7.37;;;2.98;;
23636;SDS011;11995;50.842;4.456;2022-09-02T21:13:16;7.42;;;2.85;;
23636;SDS011;11995;50.842;4.456;2022-09-02T21:15:54;4.05;;;2.85;;
23636;SDS011;11995;50.842;4.456;2022-09-02T21:18:24;7.58;;;2.70;;
23636;SDS011;11995;50.842;4.456;2022-09-02T21:24:09;5.75;;;2.77;;
23636;SDS011;11995;50.842;4.456;2022-09-02T21:29:22;5.83;;;2.83;;
23636;SDS011;11995;50.842;4.456;2022-09-02T21:31:59;8.50;;;2.90;;
23636;SDS011;11995;50.842;4.456;2022-09-02T21:37:19;4.28;;;2.70;;
23636;SDS011;11995;50.842;4.456;2022-09-02T21:39:54;11.08;;;3.95;;
23636;SDS011;11995;50.842;4.456;2022-09-02T21:42:34;6.10;;;2.80;;
23636;SDS011;11995;50.842;4.456;2022-09-02T21:45:04;6.30;;;2.58;;
23636;SDS011;11995;50.842;4.456;2022-09-02T21:47:45;4.75;;;2.40;;
23636;SDS011;11995;50.842;4.456;2022-09-02T21:50:41;5.90;;;2.47;;
23636;SDS011;11995;50.842;4.456;2022-09-02T21:53:12;3.77;;;2.25;;
23636;SDS011;11995;50.842;4.456;2022-09-02T21:56:11;7.15;;;3.08;;
23636;SDS011;11995;50.842;4.456;2022-09-02T21:58:59;6.20;;;2.72;;
23636;SDS011;11995;50.842;4.456;2022-09-02T22:01:37;4.15;;;2.55;;
23636;SDS011;11995;50.842;4.456;2022-09-02T22:07:24;5.72;;;2.70;;
23636;SDS011;11995;50.842;4.456;2022-09-02T22:10:02;4.78;;;2.22;;
23636;SDS011;11995;50.842;4.456;2022-09-02T22:12:31;7.40;;;2.72;;
23636;SDS011;11995;50.842;4.456;2022-09-02T22:15:14;5.87;;;2.70;;
23636;SDS011;11995;50.842;4.456;2022-09-02T22:17:49;3.98;;;2.17;;
23636;SDS011;11995;50.842;4.456;2022-09-02T22:20:26;4.75;;;2.30;;
23636;SDS011;11995;50.842;4.456;2022-09-02T22:22:59;5.58;;;2.33;;
23636;SDS011;11995;50.842;4.456;2022-09-02T22:25:28;10.20;;;2.80;;
23636;SDS011;11995;50.842;4.456;2022-09-02T22:28:03;11.90;;;3.05;;
23636;SDS011;11995;50.842;4.456;2022-09-02T22:30:38;8.73;;;3.17;;
23636;SDS011;11995;50.842;4.456;2022-09-02T22:33:13;14.18;;;3.40;;
23636;SDS011;11995;50.842;4.456;2022-09-02T22:35:56;7.55;;;2.98;;
23636;SDS011;11995;50.842;4.456;2022-09-02T22:38:34;5.50;;;2.72;;
23636;SDS011;11995;50.842;4.456;2022-09-02T22:41:23;5.35;;;2.72;;
23636;SDS011;11995;50.842;4.456;2022-09-02T22:44:05;5.53;;;2.70;;
23636;SDS011;11995;50.842;4.456;2022-09-02T22:47:03;3.05;;;2.50;;
23636;SDS011;11995;50.842;4.456;2022-09-02T22:49:52;5.92;;;3.25;;
23636;SDS011;11995;50.842;4.456;2022-09-02T22:52:40;6.17;;;2.90;;
23636;SDS011;11995;50.842;4.456;2022-09-02T22:55:12;3.27;;;2.62;;
23636;SDS011;11995;50.842;4.456;2022-09-02T23:00:46;7.12;;;2.98;;
23636;SDS011;11995;50.842;4.456;2022-09-02T23:03:22;2.85;;;2.50;;
23636;SDS011;11995;50.842;4.456;2022-09-02T23:08:45;8.08;;;4.60;;
23636;SDS011;11995;50.842;4.456;2022-09-02T23:12:18;8.53;;;5.60;;
23636;SDS011;11995;50.842;4.456;2022-09-02T23:16:55;7.78;;;2.60;;
23636;SDS011;11995;50.842;4.456;2022-09-02T23:19:52;5.28;;;2.37;;
23636;SDS011;11995;50.842;4.456;2022-09-02T23:33:37;7.25;;;2.30;;
23636;SDS011;11995;50.842;4.456;2022-09-02T23:38:57;3.35;;;2.10;;
23636;SDS011;11995;50.842;4.456;2022-09-02T23:41:33;4.30;;;2.10;;
23636;SDS011;11995;50.842;4.456;2022-09-02T23:44:02;12.50;;;2.20;;
23636;SDS011;11995;50.842;4.456;2022-09-02T23:49:13;7.83;;;2.77;;
23636;SDS011;11995;50.842;4.456;2022-09-02T23:51:56;4.30;;;2.20;;
23636;SDS011;11995;50.842;4.456;2022-09-02T23:54:43;6.53;;;2.00;;
